createdAt,value
2022-09-24T00:01:51.838Z,80.42
2022-09-24T00:04:26.218Z,80.42
2022-09-24T00:06:57.221Z,80.43
2022-09-24T00:09:28.104Z,80.35
2022-09-24T00:12:00.969Z,80.27
2022-09-24T00:14:32.123Z,80.28
2022-09-24T00:17:03.066Z,80.35
2022-09-24T00:19:34.463Z,80.28
2022-09-24T00:22:03.714Z,80.25
2022-09-24T00:24:52.266Z,80.35
2022-09-24T00:27:23.234Z,80.19
2022-09-24T00:29:54.109Z,80.10
2022-09-24T00:32:24.983Z,80.07
2022-09-24T00:34:55.892Z,79.87
2022-09-24T00:37:28.714Z,79.95
2022-09-24T00:39:59.584Z,79.93
2022-09-24T00:42:32.889Z,79.93
2022-09-24T00:45:04.779Z,80.12
2022-09-24T00:47:39.703Z,80.21
2022-09-24T00:50:18.092Z,80.21
2022-09-24T00:52:53.906Z,80.34
2022-09-24T00:55:26.233Z,80.34
2022-09-24T00:58:00.291Z,80.51
2022-09-24T01:00:31.716Z,80.40
2022-09-24T01:03:06.712Z,80.56
2022-09-24T01:05:38.882Z,80.58
2022-09-24T01:08:18.234Z,80.44
2022-09-24T01:10:59.287Z,80.42
2022-09-24T01:13:43.820Z,80.44
2022-09-24T01:16:23.630Z,80.40
2022-09-24T01:19:03.996Z,80.56
2022-09-24T01:21:41.200Z,80.55
2022-09-24T01:24:45.344Z,80.56
2022-09-24T01:27:20.830Z,80.58
2022-09-24T01:30:03.585Z,80.52
2022-09-24T01:32:40.484Z,80.58
2022-09-24T01:35:18.367Z,80.66
2022-09-24T01:37:56.124Z,80.58
2022-09-24T01:40:30.097Z,80.56
2022-09-24T01:43:04.955Z,80.71
2022-09-24T01:45:37.328Z,80.64
2022-09-24T01:48:09.366Z,80.62
2022-09-24T01:50:47.185Z,80.71
2022-09-24T01:53:20.986Z,80.69
2022-09-24T01:55:56.206Z,80.72
2022-09-24T01:58:33.454Z,80.77
2022-09-24T02:01:09.284Z,80.72
2022-09-24T02:03:46.917Z,80.85
2022-09-24T02:06:23.872Z,80.83
2022-09-24T02:08:58.268Z,81.00
2022-09-24T02:11:30.296Z,81.15
2022-09-24T02:14:05.351Z,81.05
2022-09-24T02:16:40.292Z,81.17
2022-09-24T02:19:15.245Z,81.08
2022-09-24T02:21:47.521Z,81.19
2022-09-24T02:24:23.429Z,81.15
2022-09-24T02:26:55.126Z,81.19
2022-09-24T02:29:26.674Z,81.28
2022-09-24T02:32:00.486Z,81.38
2022-09-24T02:34:35.801Z,81.40
2022-09-24T02:37:09.295Z,81.45
2022-09-24T02:39:40.265Z,81.56
2022-09-24T02:42:14.741Z,81.66
2022-09-24T02:44:47.610Z,81.69
2022-09-24T02:47:19.192Z,81.62
2022-09-24T02:49:50.135Z,81.65
2022-09-24T02:52:21.602Z,81.61
2022-09-24T02:54:52.532Z,81.52
2022-09-24T02:57:26.121Z,81.63
2022-09-24T02:59:55.592Z,81.52
2022-09-24T03:02:26.568Z,81.71
2022-09-24T03:04:57.808Z,81.68
2022-09-24T03:07:27.189Z,81.76
2022-09-24T03:09:59.689Z,81.73
2022-09-24T03:12:30.780Z,81.79
2022-09-24T03:15:01.555Z,81.73
2022-09-24T03:17:32.517Z,81.70
2022-09-24T03:20:04.583Z,81.63
2022-09-24T03:22:35.421Z,81.60
2022-09-24T03:25:07.123Z,81.51
2022-09-24T03:27:38.025Z,81.55
2022-09-24T03:30:27.863Z,81.59
2022-09-24T03:32:59.692Z,81.60
2022-09-24T03:35:30.545Z,81.64
2022-09-24T03:38:01.338Z,81.63
2022-09-24T03:40:32.481Z,81.63
2022-09-24T03:43:03.488Z,81.63
2022-09-24T03:45:34.271Z,81.60
2022-09-24T03:48:06.362Z,81.46
2022-09-24T03:50:39.319Z,81.44
2022-09-24T03:53:10.644Z,81.45
2022-09-24T03:55:48.117Z,81.51
2022-09-24T03:58:19.295Z,81.45
2022-09-24T04:00:52.181Z,81.28
2022-09-24T04:03:23.891Z,81.13
2022-09-24T04:05:55.267Z,81.14
2022-09-24T04:08:26.098Z,80.95
2022-09-24T04:10:56.989Z,80.84
2022-09-24T04:13:27.982Z,80.85
2022-09-24T04:16:02.342Z,80.78
2022-09-24T04:18:38.341Z,80.69
2022-09-24T04:21:10.432Z,80.49
2022-09-24T04:23:41.401Z,80.41
2022-09-24T04:26:12.583Z,80.34
2022-09-24T04:28:46.109Z,80.33
2022-09-24T04:31:17.015Z,80.38
2022-09-24T04:33:46.478Z,80.34
2022-09-24T04:36:17.909Z,80.25
2022-09-24T04:38:47.500Z,80.26
2022-09-24T04:41:18.768Z,80.23
2022-09-24T04:43:51.397Z,80.26
2022-09-24T04:46:22.175Z,80.25
2022-09-24T04:48:53.340Z,80.26
2022-09-24T04:51:22.679Z,80.28
2022-09-24T04:53:53.761Z,80.28
2022-09-24T04:56:24.713Z,80.34
2022-09-24T04:58:55.684Z,80.38
2022-09-24T05:01:27.284Z,80.56
2022-09-24T05:03:58.349Z,80.54
2022-09-24T05:06:29.784Z,80.46
2022-09-24T05:08:59.245Z,80.56
2022-09-24T05:11:30.132Z,80.70
2022-09-24T05:14:01.266Z,80.72
2022-09-24T05:16:32.209Z,80.87
2022-09-24T05:19:05.005Z,81.00
2022-09-24T05:21:35.910Z,80.99
2022-09-24T05:24:07.429Z,81.16
2022-09-24T05:26:55.812Z,81.21
2022-09-24T05:29:26.978Z,81.21
2022-09-24T05:31:56.316Z,81.13
2022-09-24T05:34:27.473Z,81.23
2022-09-24T05:36:58.317Z,81.29
2022-09-24T05:39:33.711Z,81.24
2022-09-24T05:42:05.264Z,81.24
2022-09-24T05:44:35.640Z,81.32
2022-09-24T05:47:07.257Z,81.51
2022-09-24T05:49:38.943Z,81.64
2022-09-24T05:52:10.197Z,81.64
2022-09-24T05:54:41.276Z,81.78
2022-09-24T05:57:15.617Z,81.83
2022-09-24T05:59:46.428Z,81.78
2022-09-24T06:02:15.933Z,81.99
2022-09-24T06:04:46.844Z,82.15
2022-09-24T06:07:17.879Z,82.07
2022-09-24T06:09:49.250Z,82.15
2022-09-24T06:12:22.297Z,82.08
2022-09-24T06:14:54.622Z,82.08
2022-09-24T06:17:27.260Z,82.11
2022-09-24T06:19:58.859Z,82.12
2022-09-24T06:22:30.322Z,82.20
2022-09-24T06:25:07.318Z,82.16
2022-09-24T06:27:38.488Z,82.15
2022-09-24T06:30:09.502Z,82.12
2022-09-24T06:32:40.755Z,82.05
2022-09-24T06:35:12.420Z,81.88
2022-09-24T06:37:43.420Z,81.80
2022-09-24T06:40:14.014Z,81.90
2022-09-24T06:42:44.807Z,81.92
2022-09-24T06:45:16.680Z,82.09
2022-09-24T06:47:52.729Z,81.81
2022-09-24T06:50:24.934Z,81.61
2022-09-24T06:52:56.552Z,81.65
2022-09-24T06:55:28.034Z,81.59
2022-09-24T06:58:07.194Z,81.48
2022-09-24T07:00:39.616Z,81.39
2022-09-24T07:03:14.749Z,81.38
2022-09-24T07:05:45.617Z,81.24
2022-09-24T07:08:17.343Z,80.60
2022-09-24T07:10:50.317Z,80.31
2022-09-24T07:13:22.207Z,80.54
2022-09-24T07:15:54.415Z,80.42
2022-09-24T07:18:25.491Z,80.22
2022-09-24T07:20:57.505Z,80.15
2022-09-24T07:23:28.491Z,80.22
2022-09-24T07:25:59.978Z,80.26
2022-09-24T07:28:31.336Z,80.29
2022-09-24T07:31:02.902Z,80.29
2022-09-24T07:33:35.202Z,80.17
2022-09-24T07:36:09.005Z,79.99
2022-09-24T07:38:39.873Z,79.66
2022-09-24T07:41:13.368Z,79.49
2022-09-24T07:43:44.281Z,79.44
2022-09-24T07:46:15.072Z,78.98
2022-09-24T07:48:46.797Z,78.36
2022-09-24T07:51:17.867Z,77.80
2022-09-24T07:53:49.151Z,76.94
2022-09-24T07:56:20.463Z,75.44
2022-09-24T07:58:52.808Z,75.06
2022-09-24T08:01:24.744Z,74.34
2022-09-24T08:03:56.117Z,72.44
2022-09-24T08:06:27.800Z,72.35
2022-09-24T08:08:58.618Z,72.26
2022-09-24T08:11:27.991Z,71.05
2022-09-24T08:14:00.647Z,71.93
2022-09-24T08:16:31.691Z,71.32
2022-09-24T08:19:02.791Z,70.94
2022-09-24T08:21:32.391Z,69.70
2022-09-24T08:24:01.772Z,70.03
2022-09-24T08:26:31.320Z,69.15
2022-09-24T08:29:02.449Z,68.22
2022-09-24T08:31:34.840Z,67.69
2022-09-24T08:34:05.884Z,66.76
2022-09-24T08:36:42.087Z,66.28
2022-09-24T08:39:15.633Z,64.98
2022-09-24T08:41:56.119Z,64.25
2022-09-24T08:44:49.686Z,64.23
2022-09-24T08:47:31.097Z,61.74
2022-09-24T08:50:17.559Z,63.31
2022-09-24T08:53:04.415Z,62.33
2022-09-24T08:55:39.382Z,62.15
2022-09-24T08:58:26.271Z,62.49
2022-09-24T09:01:05.679Z,61.64
2022-09-24T09:03:45.586Z,60.48
2022-09-24T09:06:36.980Z,60.08
2022-09-24T09:09:14.439Z,60.34
2022-09-24T09:11:49.393Z,60.93
2022-09-24T09:14:30.516Z,61.49
2022-09-24T09:17:07.801Z,60.94
2022-09-24T09:19:41.121Z,60.49
2022-09-24T09:22:16.939Z,59.80
2022-09-24T09:24:51.078Z,59.84
2022-09-24T09:27:23.014Z,58.77
2022-09-24T09:29:58.197Z,58.07
2022-09-24T09:32:43.477Z,57.42
2022-09-24T09:35:24.139Z,58.66
2022-09-24T09:38:04.386Z,57.27
2022-09-24T09:40:41.658Z,55.99
2022-09-24T09:43:14.539Z,57.46
2022-09-24T09:45:56.775Z,57.45
2022-09-24T09:48:32.900Z,57.05
2022-09-24T09:51:07.389Z,57.45
2022-09-24T09:53:40.101Z,55.82
2022-09-24T09:56:11.487Z,55.80
2022-09-24T09:58:47.247Z,55.39
2022-09-24T10:01:19.837Z,54.49
2022-09-24T10:03:52.525Z,55.74
2022-09-24T10:06:31.705Z,56.42
2022-09-24T10:09:17.486Z,56.63
2022-09-24T10:11:48.763Z,57.16
2022-09-24T10:14:21.338Z,55.95
2022-09-24T10:16:56.193Z,56.34
2022-09-24T10:19:29.233Z,56.29
2022-09-24T10:22:08.388Z,55.75
2022-09-24T10:24:43.435Z,55.37
2022-09-24T10:27:21.922Z,55.40
2022-09-24T10:30:14.295Z,55.05
2022-09-24T10:32:46.009Z,54.33
2022-09-24T10:35:30.470Z,54.67
2022-09-24T10:38:03.540Z,52.71
2022-09-24T10:40:41.944Z,53.28
2022-09-24T10:43:20.491Z,52.97
2022-09-24T10:46:13.092Z,53.26
2022-09-24T10:48:50.561Z,52.74
2022-09-24T10:51:34.199Z,53.50
2022-09-24T10:54:28.645Z,53.05
2022-09-24T10:57:01.287Z,53.18
2022-09-24T10:59:50.204Z,52.95
2022-09-24T11:02:37.728Z,54.05
2022-09-24T11:05:13.429Z,54.35
2022-09-24T11:08:03.172Z,55.00
2022-09-24T11:10:52.037Z,54.71
2022-09-24T11:13:32.106Z,54.95
2022-09-24T11:16:39.604Z,53.55
2022-09-24T11:19:20.877Z,52.73
2022-09-24T11:22:12.966Z,53.26
2022-09-24T11:24:59.173Z,53.25
2022-09-24T11:27:43.105Z,52.08
2022-09-24T11:30:18.510Z,51.97
2022-09-24T11:33:02.753Z,51.18
2022-09-24T11:35:46.371Z,50.54
2022-09-24T11:38:27.500Z,51.25
2022-09-24T11:41:15.418Z,52.00
2022-09-24T11:44:17.651Z,52.97
2022-09-24T11:47:00.469Z,51.32
2022-09-24T11:49:44.649Z,50.97
2022-09-24T11:52:25.712Z,51.69
2022-09-24T11:55:06.128Z,51.51
2022-09-24T11:57:42.573Z,50.18
2022-09-24T12:00:20.348Z,50.79
2022-09-24T12:02:55.344Z,50.66
2022-09-24T12:05:34.726Z,49.14
2022-09-24T12:08:14.475Z,50.16
2022-09-24T12:10:50.928Z,49.74
2022-09-24T12:13:28.296Z,50.43
2022-09-24T12:16:03.084Z,50.99
2022-09-24T12:18:40.318Z,51.22
2022-09-24T12:21:15.558Z,49.45
2022-09-24T12:23:49.431Z,49.40
2022-09-24T12:26:23.956Z,50.06
2022-09-24T12:29:20.917Z,49.38
2022-09-24T12:32:18.096Z,50.46
2022-09-24T12:34:56.196Z,48.69
2022-09-24T12:37:33.109Z,49.46
2022-09-24T12:40:16.056Z,48.66
2022-09-24T12:42:50.976Z,47.93
2022-09-24T12:45:24.361Z,47.55
2022-09-24T12:47:58.152Z,47.35
2022-09-24T12:50:32.363Z,48.25
2022-09-24T12:53:03.426Z,47.42
2022-09-24T12:55:37.044Z,47.22
2022-09-24T12:58:27.256Z,47.54
2022-09-24T13:01:13.943Z,47.64
2022-09-24T13:03:47.477Z,47.93
2022-09-24T13:06:34.633Z,46.73
2022-09-24T13:09:26.140Z,47.30
2022-09-24T13:12:20.894Z,46.72
2022-09-24T13:14:57.745Z,47.67
2022-09-24T13:17:29.094Z,47.38
2022-09-24T13:20:02.168Z,48.00
2022-09-24T13:22:35.927Z,48.06
2022-09-24T13:25:24.681Z,48.93
2022-09-24T13:28:20.063Z,48.74
2022-09-24T13:30:56.726Z,49.06
2022-09-24T13:33:32.217Z,48.20
2022-09-24T13:36:15.025Z,49.25
2022-09-24T13:38:54.729Z,49.28
2022-09-24T13:41:42.002Z,48.69
2022-09-24T13:44:22.506Z,48.86
2022-09-24T13:46:59.986Z,48.48
2022-09-24T13:49:33.395Z,47.14
2022-09-24T13:52:14.783Z,47.96
2022-09-24T13:54:53.349Z,47.51
2022-09-24T13:57:26.615Z,46.57
2022-09-24T14:00:21.455Z,46.99
2022-09-24T14:03:02.185Z,48.62
2022-09-24T14:05:36.549Z,48.21
2022-09-24T14:08:12.563Z,47.89
2022-09-24T14:10:45.766Z,47.78
2022-09-24T14:13:21.585Z,48.35
2022-09-24T14:15:57.970Z,48.10
2022-09-24T14:18:30.138Z,48.01
2022-09-24T14:21:06.250Z,45.96
2022-09-24T14:23:42.408Z,46.26
2022-09-24T14:26:22.412Z,46.74
2022-09-24T14:28:54.071Z,46.61
2022-09-24T14:31:25.269Z,45.78
2022-09-24T14:33:56.702Z,44.46
2022-09-24T14:36:29.436Z,44.33
2022-09-24T14:39:04.049Z,43.81
2022-09-24T14:41:37.777Z,42.00
2022-09-24T14:44:16.172Z,40.67
2022-09-24T14:46:51.769Z,39.31
2022-09-24T14:49:24.331Z,39.16
2022-09-24T14:51:57.458Z,39.84
2022-09-24T14:54:32.981Z,39.17
2022-09-24T14:57:24.731Z,40.66
2022-09-24T14:59:55.645Z,41.55
2022-09-24T15:02:35.212Z,42.75
2022-09-24T15:05:10.596Z,43.54
2022-09-24T15:07:41.538Z,43.18
2022-09-24T15:10:24.159Z,42.91
2022-09-24T15:12:53.974Z,42.33
2022-09-24T15:15:32.211Z,41.86
2022-09-24T15:18:03.128Z,43.28
2022-09-24T15:20:34.326Z,41.79
2022-09-24T15:23:05.170Z,41.71
2022-09-24T15:25:36.743Z,40.74
2022-09-24T15:28:12.595Z,41.01
2022-09-24T15:30:43.947Z,41.01
2022-09-24T15:33:17.558Z,41.37
2022-09-24T15:35:48.652Z,42.82
2022-09-24T15:38:21.103Z,42.02
2022-09-24T15:40:53.821Z,43.01
2022-09-24T15:43:26.279Z,43.87
2022-09-24T15:45:57.335Z,44.39
2022-09-24T15:48:28.456Z,45.61
2022-09-24T15:50:59.880Z,46.49
2022-09-24T15:53:32.230Z,46.80
2022-09-24T15:56:05.443Z,47.97
2022-09-24T15:58:36.736Z,47.34
2022-09-24T16:01:07.966Z,47.39
2022-09-24T16:03:40.455Z,48.23
2022-09-24T16:06:14.352Z,48.30
2022-09-24T16:08:46.993Z,50.00
2022-09-24T16:11:17.982Z,50.56
2022-09-24T16:13:50.681Z,50.63
2022-09-24T16:16:21.730Z,51.17
2022-09-24T16:18:52.809Z,51.69
2022-09-24T16:21:23.709Z,52.02
2022-09-24T16:23:58.677Z,52.54
2022-09-24T16:26:29.822Z,53.97
2022-09-24T16:29:03.584Z,54.93
2022-09-24T16:31:35.048Z,55.44
2022-09-24T16:34:05.932Z,56.14
2022-09-24T16:36:36.999Z,57.13
2022-09-24T16:39:08.134Z,57.86
2022-09-24T16:41:39.697Z,58.53
2022-09-24T16:44:13.362Z,59.26
2022-09-24T16:46:44.553Z,59.85
2022-09-24T16:49:15.704Z,60.57
2022-09-24T16:51:46.793Z,61.14
2022-09-24T16:54:19.826Z,61.78
2022-09-24T16:56:52.712Z,62.30
2022-09-24T16:59:28.673Z,62.93
2022-09-24T17:01:59.911Z,63.47
2022-09-24T17:04:30.946Z,64.02
2022-09-24T17:07:01.776Z,64.53
2022-09-24T17:09:49.275Z,64.92
2022-09-24T17:12:20.475Z,65.35
2022-09-24T17:14:51.601Z,65.60
2022-09-24T17:17:22.680Z,66.09
2022-09-24T17:19:53.534Z,66.33
2022-09-24T17:22:22.894Z,66.63
2022-09-24T17:24:54.128Z,67.00
2022-09-24T17:27:25.242Z,67.31
2022-09-24T17:29:56.267Z,67.64
2022-09-24T17:32:27.113Z,67.84
2022-09-24T17:34:58.105Z,68.01
2022-09-24T17:37:28.573Z,68.40
2022-09-24T17:39:59.464Z,68.82
2022-09-24T17:42:31.709Z,68.96
2022-09-24T17:45:02.612Z,69.34
2022-09-24T17:47:54.557Z,69.68
2022-09-24T17:50:25.831Z,69.87
2022-09-24T17:52:56.853Z,70.06
2022-09-24T17:55:26.209Z,70.27
2022-09-24T17:57:57.268Z,70.56
2022-09-24T18:00:26.699Z,70.85
2022-09-24T18:02:58.112Z,71.30
2022-09-24T18:05:29.016Z,71.37
2022-09-24T18:07:58.604Z,71.64
2022-09-24T18:10:29.628Z,71.97
2022-09-24T18:13:00.836Z,72.17
2022-09-24T18:15:32.846Z,72.31
2022-09-24T18:18:03.868Z,72.47
2022-09-24T18:20:34.700Z,72.28
2022-09-24T18:23:04.106Z,72.35
2022-09-24T18:25:35.075Z,72.75
2022-09-24T18:28:06.496Z,72.87
2022-09-24T18:30:37.266Z,73.07
2022-09-24T18:33:08.528Z,73.40
2022-09-24T18:35:39.456Z,73.75
2022-09-24T18:38:10.668Z,73.90
2022-09-24T18:40:42.034Z,74.02
2022-09-24T18:43:13.222Z,74.16
2022-09-24T18:45:44.061Z,74.24
2022-09-24T18:48:18.236Z,74.19
2022-09-24T18:50:49.686Z,74.15
2022-09-24T18:53:20.451Z,74.18
2022-09-24T18:55:51.399Z,74.30
2022-09-24T18:58:20.868Z,74.43
2022-09-24T19:00:54.165Z,74.65
2022-09-24T19:03:26.306Z,74.71
2022-09-24T19:06:01.566Z,74.59
2022-09-24T19:08:32.896Z,74.57
2022-09-24T19:11:10.214Z,74.59
2022-09-24T19:13:43.060Z,74.88
2022-09-24T19:16:15.629Z,75.01
2022-09-24T19:18:47.127Z,75.10
2022-09-24T19:21:19.013Z,75.40
2022-09-24T19:23:52.059Z,75.50
2022-09-24T19:26:25.808Z,75.71
2022-09-24T19:28:57.176Z,75.71
2022-09-24T19:31:30.758Z,75.64
2022-09-24T19:34:03.899Z,75.24
2022-09-24T19:36:43.648Z,75.29
2022-09-24T19:39:18.523Z,75.36
2022-09-24T19:41:52.932Z,75.41
2022-09-24T19:44:24.075Z,75.82
2022-09-24T19:46:54.733Z,75.63
2022-09-24T19:49:25.599Z,75.58
2022-09-24T19:51:56.643Z,75.66
2022-09-24T19:54:27.667Z,75.85
2022-09-24T19:56:57.528Z,76.00
2022-09-24T19:59:31.001Z,76.18
2022-09-24T20:02:01.876Z,76.41
2022-09-24T20:04:35.048Z,76.59
2022-09-24T20:07:06.269Z,76.64
2022-09-24T20:09:40.319Z,76.48
2022-09-24T20:12:17.578Z,76.14
2022-09-24T20:14:48.636Z,75.86
2022-09-24T20:17:19.510Z,75.69
2022-09-24T20:19:50.842Z,75.81
2022-09-24T20:22:21.954Z,76.02
2022-09-24T20:24:52.846Z,76.29
2022-09-24T20:27:39.846Z,76.45
2022-09-24T20:30:11.947Z,76.52
2022-09-24T20:32:44.275Z,76.51
2022-09-24T20:35:16.023Z,76.67
2022-09-24T20:37:48.992Z,76.83
2022-09-24T20:40:20.308Z,77.22
2022-09-24T20:42:51.522Z,77.28
2022-09-24T20:45:22.478Z,77.36
2022-09-24T20:47:53.281Z,77.55
2022-09-24T20:50:22.652Z,77.50
2022-09-24T20:52:53.526Z,77.41
2022-09-24T20:55:24.975Z,77.30
2022-09-24T20:57:56.045Z,77.17
2022-09-24T21:00:34.097Z,77.17
2022-09-24T21:03:25.664Z,77.20
2022-09-24T21:06:04.042Z,77.25
2022-09-24T21:08:36.111Z,77.35
2022-09-24T21:11:09.751Z,77.34
2022-09-24T21:13:44.853Z,77.38
2022-09-24T21:16:17.226Z,77.04
2022-09-24T21:18:48.579Z,76.96
2022-09-24T21:21:21.394Z,76.93
2022-09-24T21:23:54.245Z,76.91
2022-09-24T21:26:27.662Z,77.15
2022-09-24T21:29:01.802Z,77.30
2022-09-24T21:31:34.378Z,77.39
2022-09-24T21:34:07.081Z,77.63
2022-09-24T21:36:44.533Z,77.56
2022-09-24T21:39:18.160Z,77.71
2022-09-24T21:41:51.377Z,77.49
2022-09-24T21:44:22.503Z,77.45
2022-09-24T21:46:53.520Z,77.33
2022-09-24T21:49:23.060Z,77.48
2022-09-24T21:51:55.749Z,77.67
2022-09-24T21:54:26.812Z,77.57
2022-09-24T21:56:57.722Z,77.76
2022-09-24T21:59:46.247Z,78.04
2022-09-24T22:02:17.440Z,78.09
2022-09-24T22:04:50.349Z,78.01
2022-09-24T22:07:21.290Z,78.26
2022-09-24T22:09:52.355Z,78.40
2022-09-24T22:12:23.475Z,78.51
2022-09-24T22:14:54.619Z,78.37
2022-09-24T22:17:26.813Z,78.27
2022-09-24T22:19:58.208Z,78.00
2022-09-24T22:22:29.489Z,77.91
2022-09-24T22:24:58.711Z,78.09
2022-09-24T22:27:29.599Z,78.25
2022-09-24T22:30:00.645Z,78.28
2022-09-24T22:32:31.411Z,78.28
2022-09-24T22:35:20.111Z,78.18
2022-09-24T22:37:51.299Z,78.08
2022-09-24T22:40:22.196Z,78.30
2022-09-24T22:42:53.188Z,78.38
2022-09-24T22:45:24.136Z,78.52
2022-09-24T22:47:56.799Z,78.51
2022-09-24T22:50:27.868Z,78.53
2022-09-24T22:52:58.724Z,78.47
2022-09-24T22:55:29.815Z,78.60
2022-09-24T22:58:00.819Z,78.78
2022-09-24T23:00:31.905Z,78.79
2022-09-24T23:03:03.969Z,78.82
2022-09-24T23:05:35.936Z,78.79
2022-09-24T23:08:06.988Z,78.83
2022-09-24T23:10:37.922Z,78.91
2022-09-24T23:13:08.856Z,79.02
2022-09-24T23:15:39.978Z,79.01
2022-09-24T23:18:10.849Z,79.06
2022-09-24T23:20:42.344Z,79.04
2022-09-24T23:23:13.435Z,79.19
2022-09-24T23:25:44.684Z,79.44
2022-09-24T23:28:13.988Z,79.54
2022-09-24T23:30:44.972Z,79.57
2022-09-24T23:33:15.906Z,79.46
2022-09-24T23:35:45.881Z,79.45
2022-09-24T23:38:16.829Z,79.39
2022-09-24T23:40:50.982Z,79.14
2022-09-24T23:43:22.697Z,79.22
2022-09-24T23:45:53.577Z,79.19
2022-09-24T23:48:25.500Z,79.26
2022-09-24T23:50:57.210Z,79.42
2022-09-24T23:53:28.931Z,79.40
2022-09-24T23:55:59.819Z,79.48
2022-09-24T23:58:30.733Z,79.59
